Enter the Airport ICAO Code

Search by Airport or City

Current Weather

LGTS | Thessaloniki Airport "Macedonia"

Thessaloniki, Greece

Last Update 18 Minutes Ago

Mist

Temperature of 09 ºC

Light to Moderate Winds from West

Temperature

09 ºC

Dew Point Temperature

07 ºC

Relative Humidity

87.32 %

Wind Direction

West (280º, Without Significant Variations)

Wind Velocity

9 km/h (05 kt)

Gusts

None

Visibility

Reduced to 8.0 Kilometers

Sea Level Pressure

1022 hPa (Hectopascals)

Layers of Clouds

5% to 30% of Sky Covered from 183 mts (600 ft) Above Ground Level.

60% to 90% of Sky Covered from 762 mts (2500 ft) Above Ground Level.

METAR LGTS 022120Z 28005KT 8000 4000E BR FEW006 BKN025 09/07 Q1022 NOSIG

Weather Forecast

LGTS | Thessaloniki Airport "Macedonia"

Thessaloniki, Greece

Forecast valid for the next 20 Hours

From now on it is expected:

Mostly Cloudy Sky

Moderate Winds from East

From now on it is expected 11 hours with intermittent periods of:

Rain

Maximum Temperature

No Data

Minimum Temperature

No Data

TAF LGTS 021700Z 0218/0318 10010KT 8000 FEW008 BKN025 PROB40 TEMPO 0218/0309 7000 RA